sensor_id;sensor_type;location;lat;lon;timestamp;pressure;altitude;pressure_sealevel;temperature;humidity
7532;BME280;3807;49.030;8.714;2023-05-22T00:00:05;98898.91;;;22.25;58.12
7532;BME280;3807;49.030;8.714;2023-05-22T00:02:35;98895.06;;;22.19;58.21
7532;BME280;3807;49.030;8.714;2023-05-22T00:05:10;98890.66;;;22.10;58.35
7532;BME280;3807;49.030;8.714;2023-05-22T00:07:37;98897.63;;;22.09;58.43
7532;BME280;3807;49.030;8.714;2023-05-22T00:10:03;98895.44;;;22.05;58.47
7532;BME280;3807;49.030;8.714;2023-05-22T00:12:28;98892.97;;;22.03;58.65
7532;BME280;3807;49.030;8.714;2023-05-22T00:14:54;98897.75;;;21.98;58.55
7532;BME280;3807;49.030;8.714;2023-05-22T00:17:19;98896.22;;;21.96;58.66
7532;BME280;3807;49.030;8.714;2023-05-22T00:19:44;98893.09;;;21.92;58.55
7532;BME280;3807;49.030;8.714;2023-05-22T00:22:10;98886.38;;;21.89;58.58
7532;BME280;3807;49.030;8.714;2023-05-22T00:24:35;98886.94;;;21.83;58.63
7532;BME280;3807;49.030;8.714;2023-05-22T00:27:01;98888.16;;;21.79;58.87
7532;BME280;3807;49.030;8.714;2023-05-22T00:29:26;98881.06;;;21.81;58.76
7532;BME280;3807;49.030;8.714;2023-05-22T00:31:51;98879.53;;;21.79;58.57
7532;BME280;3807;49.030;8.714;2023-05-22T00:34:17;98880.66;;;21.76;58.60
7532;BME280;3807;49.030;8.714;2023-05-22T00:36:43;98882.69;;;21.73;58.73
7532;BME280;3807;49.030;8.714;2023-05-22T00:39:08;98881.44;;;21.67;58.83
7532;BME280;3807;49.030;8.714;2023-05-22T00:41:34;98886.78;;;21.66;58.92
7532;BME280;3807;49.030;8.714;2023-05-22T00:43:59;98888.81;;;21.62;59.10
7532;BME280;3807;49.030;8.714;2023-05-22T00:46:25;98884.56;;;21.61;58.98
7532;BME280;3807;49.030;8.714;2023-05-22T00:48:50;98882.22;;;21.58;59.00
7532;BME280;3807;49.030;8.714;2023-05-22T00:51:20;98883.44;;;21.54;59.06
7532;BME280;3807;49.030;8.714;2023-05-22T00:53:46;98881.00;;;21.52;59.00
7532;BME280;3807;49.030;8.714;2023-05-22T00:56:12;98880.44;;;21.49;59.26
7532;BME280;3807;49.030;8.714;2023-05-22T00:58:39;98882.19;;;21.38;59.36
7532;BME280;3807;49.030;8.714;2023-05-22T01:01:05;98883.13;;;21.37;59.28
7532;BME280;3807;49.030;8.714;2023-05-22T01:03:35;98873.69;;;21.36;59.27
7532;BME280;3807;49.030;8.714;2023-05-22T01:06:02;98879.59;;;21.38;59.26
7532;BME280;3807;49.030;8.714;2023-05-22T01:08:27;98886.66;;;21.36;59.32
7532;BME280;3807;49.030;8.714;2023-05-22T01:10:57;98878.94;;;21.25;59.45
7532;BME280;3807;49.030;8.714;2023-05-22T01:13:35;98883.56;;;21.22;59.59
7532;BME280;3807;49.030;8.714;2023-05-22T01:16:25;98886.00;;;21.23;59.44
7532;BME280;3807;49.030;8.714;2023-05-22T01:18:57;98881.22;;;21.18;59.52
7532;BME280;3807;49.030;8.714;2023-05-22T01:21:36;98882.13;;;21.08;59.86
7532;BME280;3807;49.030;8.714;2023-05-22T01:27:10;98889.50;;;21.03;59.93
7532;BME280;3807;49.030;8.714;2023-05-22T01:30:02;98888.06;;;20.99;59.93
7532;BME280;3807;49.030;8.714;2023-05-22T01:32:38;98890.00;;;20.97;60.04
7532;BME280;3807;49.030;8.714;2023-05-22T01:35:06;98885.56;;;20.87;60.11
7532;BME280;3807;49.030;8.714;2023-05-22T01:37:35;98887.47;;;20.85;60.17
7532;BME280;3807;49.030;8.714;2023-05-22T01:40:02;98895.34;;;20.84;60.29
7532;BME280;3807;49.030;8.714;2023-05-22T01:42:28;98890.81;;;20.76;60.49
7532;BME280;3807;49.030;8.714;2023-05-22T01:44:53;98897.19;;;20.72;60.60
7532;BME280;3807;49.030;8.714;2023-05-22T01:47:19;98899.22;;;20.68;60.74
7532;BME280;3807;49.030;8.714;2023-05-22T01:49:44;98896.63;;;20.68;60.51
7532;BME280;3807;49.030;8.714;2023-05-22T01:52:27;98894.97;;;20.67;60.61
7532;BME280;3807;49.030;8.714;2023-05-22T01:55:08;98900.41;;;20.64;60.64
7532;BME280;3807;49.030;8.714;2023-05-22T01:57:58;98897.50;;;20.58;60.71
7532;BME280;3807;49.030;8.714;2023-05-22T02:00:24;98899.28;;;20.57;60.79
7532;BME280;3807;49.030;8.714;2023-05-22T02:02:56;98900.34;;;20.55;60.71
7532;BME280;3807;49.030;8.714;2023-05-22T02:05:23;98904.00;;;20.52;60.84
7532;BME280;3807;49.030;8.714;2023-05-22T02:07:51;98909.50;;;20.48;60.73
7532;BME280;3807;49.030;8.714;2023-05-22T02:10:20;98905.97;;;20.49;60.80
7532;BME280;3807;49.030;8.714;2023-05-22T02:12:46;98910.56;;;20.45;60.91
7532;BME280;3807;49.030;8.714;2023-05-22T02:15:12;98913.41;;;20.42;60.93
7532;BME280;3807;49.030;8.714;2023-05-22T02:17:38;98910.97;;;20.40;60.82
7532;BME280;3807;49.030;8.714;2023-05-22T02:20:11;98914.03;;;20.34;60.85
7532;BME280;3807;49.030;8.714;2023-05-22T02:22:44;98916.84;;;20.31;61.11
7532;BME280;3807;49.030;8.714;2023-05-22T02:25:14;98916.41;;;20.26;60.95
7532;BME280;3807;49.030;8.714;2023-05-22T02:27:44;98917.25;;;20.27;60.74
7532;BME280;3807;49.030;8.714;2023-05-22T02:30:11;98918.66;;;20.19;61.19
7532;BME280;3807;49.030;8.714;2023-05-22T02:32:38;98915.12;;;20.20;61.12
7532;BME280;3807;49.030;8.714;2023-05-22T02:35:03;98917.59;;;20.22;61.08
7532;BME280;3807;49.030;8.714;2023-05-22T02:37:29;98925.47;;;20.20;61.14
7532;BME280;3807;49.030;8.714;2023-05-22T02:39:55;98923.94;;;20.18;61.15
7532;BME280;3807;49.030;8.714;2023-05-22T02:42:21;98920.91;;;20.13;61.18
7532;BME280;3807;49.030;8.714;2023-05-22T02:44:47;98918.34;;;20.13;61.15
7532;BME280;3807;49.030;8.714;2023-05-22T02:47:12;98918.44;;;20.11;61.04
7532;BME280;3807;49.030;8.714;2023-05-22T02:49:37;98916.84;;;19.99;61.53
7532;BME280;3807;49.030;8.714;2023-05-22T02:52:03;98918.47;;;20.00;61.20
7532;BME280;3807;49.030;8.714;2023-05-22T02:54:28;98920.47;;;19.96;61.21
7532;BME280;3807;49.030;8.714;2023-05-22T02:56:53;98914.34;;;19.97;61.05
7532;BME280;3807;49.030;8.714;2023-05-22T02:59:19;98917.22;;;19.94;61.32
7532;BME280;3807;49.030;8.714;2023-05-22T03:01:44;98919.09;;;19.92;61.19
7532;BME280;3807;49.030;8.714;2023-05-22T03:04:10;98914.00;;;19.91;61.27
7532;BME280;3807;49.030;8.714;2023-05-22T03:06:36;98918.37;;;19.90;61.28
7532;BME280;3807;49.030;8.714;2023-05-22T03:09:02;98914.38;;;19.86;61.34
7532;BME280;3807;49.030;8.714;2023-05-22T03:11:29;98916.53;;;19.81;61.28
7532;BME280;3807;49.030;8.714;2023-05-22T03:13:55;98918.16;;;19.82;61.44
7532;BME280;3807;49.030;8.714;2023-05-22T03:16:20;98920.97;;;19.79;61.35
7532;BME280;3807;49.030;8.714;2023-05-22T03:18:46;98925.56;;;19.75;61.51
7532;BME280;3807;49.030;8.714;2023-05-22T03:21:11;98929.19;;;19.73;61.26
7532;BME280;3807;49.030;8.714;2023-05-22T03:23:36;98932.72;;;19.72;61.41
7532;BME280;3807;49.030;8.714;2023-05-22T03:26:02;98925.09;;;19.70;61.33
7532;BME280;3807;49.030;8.714;2023-05-22T03:28:27;98925.78;;;19.72;61.41
7532;BME280;3807;49.030;8.714;2023-05-22T03:30:52;98929.78;;;19.65;61.54
7532;BME280;3807;49.030;8.714;2023-05-22T03:33:18;98930.84;;;19.63;61.48
7532;BME280;3807;49.030;8.714;2023-05-22T03:35:43;98927.53;;;19.61;61.55
7532;BME280;3807;49.030;8.714;2023-05-22T03:38:09;98930.12;;;19.61;61.54
7532;BME280;3807;49.030;8.714;2023-05-22T03:40:34;98931.91;;;19.60;61.55
7532;BME280;3807;49.030;8.714;2023-05-22T03:42:59;98925.44;;;19.55;61.58
7532;BME280;3807;49.030;8.714;2023-05-22T03:45:25;98921.31;;;19.52;61.76
7532;BME280;3807;49.030;8.714;2023-05-22T03:47:50;98921.44;;;19.50;61.65
7532;BME280;3807;49.030;8.714;2023-05-22T03:50:16;98930.12;;;19.49;61.65
7532;BME280;3807;49.030;8.714;2023-05-22T03:52:41;98916.75;;;19.44;61.85
7532;BME280;3807;49.030;8.714;2023-05-22T03:55:07;98916.75;;;19.44;61.59
7532;BME280;3807;49.030;8.714;2023-05-22T03:57:32;98915.69;;;19.47;61.68
7532;BME280;3807;49.030;8.714;2023-05-22T03:59:58;98906.53;;;19.43;61.64
7532;BME280;3807;49.030;8.714;2023-05-22T04:02:30;98908.31;;;19.42;61.68
7532;BME280;3807;49.030;8.714;2023-05-22T04:04:55;98912.53;;;19.43;61.59
7532;BME280;3807;49.030;8.714;2023-05-22T04:07:21;98911.56;;;19.44;61.55
7532;BME280;3807;49.030;8.714;2023-05-22T04:09:46;98918.97;;;19.38;61.70
7532;BME280;3807;49.030;8.714;2023-05-22T04:12:11;98915.09;;;19.32;61.80
7532;BME280;3807;49.030;8.714;2023-05-22T04:14:37;98917.69;;;19.32;61.68
7532;BME280;3807;49.030;8.714;2023-05-22T04:17:02;98924.47;;;19.33;61.73
7532;BME280;3807;49.030;8.714;2023-05-22T04:19:27;98918.59;;;19.31;61.76
7532;BME280;3807;49.030;8.714;2023-05-22T04:21:55;98918.84;;;19.28;61.85
7532;BME280;3807;49.030;8.714;2023-05-22T04:24:21;98923.91;;;19.30;61.80
7532;BME280;3807;49.030;8.714;2023-05-22T04:26:47;98927.06;;;19.33;61.56
7532;BME280;3807;49.030;8.714;2023-05-22T04:29:13;98929.41;;;19.25;61.75
7532;BME280;3807;49.030;8.714;2023-05-22T04:31:38;98934.59;;;19.25;61.92
7532;BME280;3807;49.030;8.714;2023-05-22T04:34:04;98934.34;;;19.39;61.49
7532;BME280;3807;49.030;8.714;2023-05-22T04:36:30;98940.44;;;19.27;61.82
7532;BME280;3807;49.030;8.714;2023-05-22T04:38:55;98936.66;;;19.20;61.84
7532;BME280;3807;49.030;8.714;2023-05-22T04:41:21;98936.22;;;19.15;62.18
7532;BME280;3807;49.030;8.714;2023-05-22T04:43:51;98948.03;;;19.17;62.04
7532;BME280;3807;49.030;8.714;2023-05-22T04:46:17;98944.41;;;19.09;62.31
7532;BME280;3807;49.030;8.714;2023-05-22T04:48:42;98948.87;;;19.18;62.08
7532;BME280;3807;49.030;8.714;2023-05-22T04:51:08;98950.03;;;19.14;62.04
7532;BME280;3807;49.030;8.714;2023-05-22T04:53:34;98946.53;;;19.15;62.13
7532;BME280;3807;49.030;8.714;2023-05-22T04:56:00;98949.56;;;19.09;62.39
7532;BME280;3807;49.030;8.714;2023-05-22T04:58:25;98948.41;;;19.13;62.23
7532;BME280;3807;49.030;8.714;2023-05-22T05:00:53;98947.22;;;19.17;62.08
7532;BME280;3807;49.030;8.714;2023-05-22T05:03:19;98954.50;;;19.12;62.16
7532;BME280;3807;49.030;8.714;2023-05-22T05:05:45;98953.56;;;19.13;62.03
7532;BME280;3807;49.030;8.714;2023-05-22T05:08:12;98954.94;;;19.06;62.25
7532;BME280;3807;49.030;8.714;2023-05-22T05:10:37;98952.50;;;19.04;62.37
7532;BME280;3807;49.030;8.714;2023-05-22T05:13:02;98954.94;;;19.06;62.40
7532;BME280;3807;49.030;8.714;2023-05-22T05:15:28;98953.53;;;19.01;62.38
7532;BME280;3807;49.030;8.714;2023-05-22T05:17:53;98959.53;;;19.02;62.27
7532;BME280;3807;49.030;8.714;2023-05-22T05:20:19;98950.25;;;18.99;62.61
7532;BME280;3807;49.030;8.714;2023-05-22T05:22:44;98959.66;;;19.00;62.46
7532;BME280;3807;49.030;8.714;2023-05-22T05:25:10;98965.72;;;18.99;62.41
7532;BME280;3807;49.030;8.714;2023-05-22T05:27:36;98960.47;;;19.01;62.41
7532;BME280;3807;49.030;8.714;2023-05-22T05:30:01;98948.97;;;19.05;62.34
7532;BME280;3807;49.030;8.714;2023-05-22T05:32:27;98959.28;;;18.94;62.75
7532;BME280;3807;49.030;8.714;2023-05-22T05:34:53;98953.62;;;18.89;62.75
7532;BME280;3807;49.030;8.714;2023-05-22T05:37:18;98954.81;;;18.96;62.71
7532;BME280;3807;49.030;8.714;2023-05-22T05:39:43;98953.75;;;18.98;62.77
7532;BME280;3807;49.030;8.714;2023-05-22T05:42:09;98961.28;;;19.01;62.27
7532;BME280;3807;49.030;8.714;2023-05-22T05:44:34;98960.94;;;19.06;62.14
7532;BME280;3807;49.030;8.714;2023-05-22T05:46:59;98956.00;;;19.03;62.12
7532;BME280;3807;49.030;8.714;2023-05-22T05:49:25;98965.50;;;19.02;62.11
7532;BME280;3807;49.030;8.714;2023-05-22T05:51:51;98959.88;;;18.97;62.36
7532;BME280;3807;49.030;8.714;2023-05-22T05:54:16;98959.59;;;18.89;62.55
7532;BME280;3807;49.030;8.714;2023-05-22T05:56:41;98960.56;;;18.99;62.33
7532;BME280;3807;49.030;8.714;2023-05-22T05:59:07;98963.63;;;18.93;62.58
7532;BME280;3807;49.030;8.714;2023-05-22T06:01:34;98967.38;;;19.00;62.40
7532;BME280;3807;49.030;8.714;2023-05-22T06:04:00;98967.03;;;19.05;62.17
7532;BME280;3807;49.030;8.714;2023-05-22T06:06:30;98970.31;;;19.07;62.16
7532;BME280;3807;49.030;8.714;2023-05-22T06:09:07;98971.00;;;18.98;62.50
7532;BME280;3807;49.030;8.714;2023-05-22T06:11:33;98965.28;;;19.17;62.08
7532;BME280;3807;49.030;8.714;2023-05-22T06:14:03;98967.97;;;19.04;62.38
7532;BME280;3807;49.030;8.714;2023-05-22T06:16:29;98975.47;;;19.07;62.35
7532;BME280;3807;49.030;8.714;2023-05-22T06:18:58;98974.56;;;19.19;62.20
7532;BME280;3807;49.030;8.714;2023-05-22T06:21:23;98974.72;;;19.40;61.55
7532;BME280;3807;49.030;8.714;2023-05-22T06:23:50;98978.03;;;19.42;61.48
7532;BME280;3807;49.030;8.714;2023-05-22T06:26:16;98975.00;;;19.60;60.96
7532;BME280;3807;49.030;8.714;2023-05-22T06:28:42;98983.66;;;19.36;61.64
7532;BME280;3807;49.030;8.714;2023-05-22T06:31:07;98979.22;;;19.49;61.24
7532;BME280;3807;49.030;8.714;2023-05-22T06:33:36;98978.13;;;19.52;61.14
7532;BME280;3807;49.030;8.714;2023-05-22T06:36:03;98985.78;;;19.54;61.10
7532;BME280;3807;49.030;8.714;2023-05-22T06:38:29;98977.44;;;19.61;61.04
7532;BME280;3807;49.030;8.714;2023-05-22T06:40:55;98980.94;;;19.49;61.55
7532;BME280;3807;49.030;8.714;2023-05-22T06:43:20;98978.84;;;19.54;61.23
7532;BME280;3807;49.030;8.714;2023-05-22T06:45:46;98971.72;;;19.80;63.15
7532;BME280;3807;49.030;8.714;2023-05-22T06:48:11;98980.88;;;19.95;65.28
7532;BME280;3807;49.030;8.714;2023-05-22T06:50:36;98981.72;;;19.85;64.95
7532;BME280;3807;49.030;8.714;2023-05-22T06:53:02;98984.72;;;20.01;64.35
7532;BME280;3807;49.030;8.714;2023-05-22T06:55:27;98988.72;;;20.16;61.63
7532;BME280;3807;49.030;8.714;2023-05-22T06:57:53;98979.06;;;20.18;62.63
7532;BME280;3807;49.030;8.714;2023-05-22T07:00:18;98984.50;;;20.15;60.69
7532;BME280;3807;49.030;8.714;2023-05-22T07:02:44;98982.50;;;20.19;63.93
7532;BME280;3807;49.030;8.714;2023-05-22T07:05:10;98986.00;;;20.18;64.73
7532;BME280;3807;49.030;8.714;2023-05-22T07:07:35;98988.47;;;20.19;65.31
7532;BME280;3807;49.030;8.714;2023-05-22T07:10:01;98986.59;;;20.21;65.51
7532;BME280;3807;49.030;8.714;2023-05-22T07:12:26;98985.72;;;20.32;64.74
7532;BME280;3807;49.030;8.714;2023-05-22T07:14:52;98989.75;;;20.36;65.11
7532;BME280;3807;49.030;8.714;2023-05-22T07:17:18;98990.31;;;20.29;65.08
7532;BME280;3807;49.030;8.714;2023-05-22T07:19:48;98984.00;;;20.33;66.39
7532;BME280;3807;49.030;8.714;2023-05-22T07:22:14;98992.34;;;20.36;66.08
7532;BME280;3807;49.030;8.714;2023-05-22T07:24:40;98985.47;;;20.46;65.71
7532;BME280;3807;49.030;8.714;2023-05-22T07:27:05;98986.72;;;20.63;64.32
7532;BME280;3807;49.030;8.714;2023-05-22T07:29:31;98994.63;;;20.62;64.78
7532;BME280;3807;49.030;8.714;2023-05-22T07:31:56;98995.72;;;20.80;64.26
7532;BME280;3807;49.030;8.714;2023-05-22T07:34:22;98996.44;;;20.82;65.39
7532;BME280;3807;49.030;8.714;2023-05-22T07:36:48;98998.22;;;20.82;65.67
7532;BME280;3807;49.030;8.714;2023-05-22T07:39:13;98999.69;;;20.84;65.55
7532;BME280;3807;49.030;8.714;2023-05-22T07:41:39;98997.94;;;20.85;64.89
7532;BME280;3807;49.030;8.714;2023-05-22T07:44:05;98996.75;;;20.89;65.32
7532;BME280;3807;49.030;8.714;2023-05-22T07:46:30;99004.22;;;21.03;64.35
7532;BME280;3807;49.030;8.714;2023-05-22T07:48:55;99000.59;;;20.94;65.21
7532;BME280;3807;49.030;8.714;2023-05-22T07:51:21;99007.22;;;20.87;66.02
7532;BME280;3807;49.030;8.714;2023-05-22T07:53:46;99003.91;;;20.97;65.26
7532;BME280;3807;49.030;8.714;2023-05-22T07:56:12;98998.59;;;21.19;64.37
7532;BME280;3807;49.030;8.714;2023-05-22T07:58:37;99012.00;;;21.24;65.27
7532;BME280;3807;49.030;8.714;2023-05-22T08:01:04;99012.31;;;21.31;64.98
7532;BME280;3807;49.030;8.714;2023-05-22T08:03:30;99007.81;;;21.33;65.08
7532;BME280;3807;49.030;8.714;2023-05-22T08:05:55;99006.91;;;21.34;64.83
7532;BME280;3807;49.030;8.714;2023-05-22T08:08:20;99003.69;;;21.42;65.18
7532;BME280;3807;49.030;8.714;2023-05-22T08:10:46;99011.13;;;21.56;64.33
7532;BME280;3807;49.030;8.714;2023-05-22T08:13:13;99005.59;;;21.70;64.81
7532;BME280;3807;49.030;8.714;2023-05-22T08:15:39;99014.19;;;21.71;64.94
7532;BME280;3807;49.030;8.714;2023-05-22T08:18:05;99015.34;;;21.87;64.52
7532;BME280;3807;49.030;8.714;2023-05-22T08:20:30;99008.53;;;21.96;64.44
7532;BME280;3807;49.030;8.714;2023-05-22T08:22:56;99015.13;;;22.00;64.38
7532;BME280;3807;49.030;8.714;2023-05-22T08:25:21;99013.22;;;22.02;64.01
7532;BME280;3807;49.030;8.714;2023-05-22T08:27:47;99006.53;;;22.09;64.17
7532;BME280;3807;49.030;8.714;2023-05-22T08:30:12;99018.28;;;22.04;64.17
7532;BME280;3807;49.030;8.714;2023-05-22T08:32:37;99009.66;;;21.94;64.35
7532;BME280;3807;49.030;8.714;2023-05-22T08:35:03;99009.53;;;22.05;63.88
7532;BME280;3807;49.030;8.714;2023-05-22T08:37:29;99023.06;;;22.08;64.26
7532;BME280;3807;49.030;8.714;2023-05-22T08:39:54;99011.63;;;22.11;63.92
7532;BME280;3807;49.030;8.714;2023-05-22T08:42:20;99013.06;;;22.44;63.36
7532;BME280;3807;49.030;8.714;2023-05-22T08:44:46;99014.69;;;22.45;63.30
7532;BME280;3807;49.030;8.714;2023-05-22T08:47:13;99009.75;;;22.23;63.21
7532;BME280;3807;49.030;8.714;2023-05-22T08:49:39;99010.06;;;22.49;63.11
7532;BME280;3807;49.030;8.714;2023-05-22T08:52:20;99008.19;;;22.61;63.13
7532;BME280;3807;49.030;8.714;2023-05-22T08:54:51;99000.53;;;22.69;62.83
7532;BME280;3807;49.030;8.714;2023-05-22T08:57:20;98996.28;;;22.87;62.76
7532;BME280;3807;49.030;8.714;2023-05-22T08:59:46;99002.31;;;22.97;62.34
7532;BME280;3807;49.030;8.714;2023-05-22T09:02:12;99005.56;;;22.90;61.89
7532;BME280;3807;49.030;8.714;2023-05-22T09:04:41;99003.44;;;22.95;62.55
7532;BME280;3807;49.030;8.714;2023-05-22T09:07:07;98998.22;;;23.04;62.20
7532;BME280;3807;49.030;8.714;2023-05-22T09:09:39;99000.00;;;23.04;62.09
7532;BME280;3807;49.030;8.714;2023-05-22T09:12:09;98999.72;;;23.17;61.82
7532;BME280;3807;49.030;8.714;2023-05-22T09:14:42;98995.03;;;23.30;62.51
7532;BME280;3807;49.030;8.714;2023-05-22T09:17:09;98996.50;;;23.42;62.64
7532;BME280;3807;49.030;8.714;2023-05-22T09:19:36;98997.91;;;23.37;62.00
7532;BME280;3807;49.030;8.714;2023-05-22T09:22:05;98998.56;;;23.39;62.10
7532;BME280;3807;49.030;8.714;2023-05-22T09:24:37;99002.69;;;23.32;61.99
7532;BME280;3807;49.030;8.714;2023-05-22T09:27:05;98997.72;;;23.48;61.90
7532;BME280;3807;49.030;8.714;2023-05-22T09:29:30;98997.53;;;23.69;61.69
7532;BME280;3807;49.030;8.714;2023-05-22T09:31:58;98995.69;;;23.89;61.11
7532;BME280;3807;49.030;8.714;2023-05-22T09:34:27;98990.16;;;23.92;61.14
7532;BME280;3807;49.030;8.714;2023-05-22T09:37:00;98985.44;;;23.40;61.51
7532;BME280;3807;49.030;8.714;2023-05-22T09:39:37;98990.50;;;23.89;60.68
7532;BME280;3807;49.030;8.714;2023-05-22T09:42:02;98979.47;;;23.95;60.63
7532;BME280;3807;49.030;8.714;2023-05-22T09:44:28;98987.09;;;24.06;60.59
7532;BME280;3807;49.030;8.714;2023-05-22T09:46:54;98978.88;;;24.11;60.52
7532;BME280;3807;49.030;8.714;2023-05-22T09:49:19;98978.91;;;24.01;60.23
7532;BME280;3807;49.030;8.714;2023-05-22T09:51:45;98985.88;;;24.28;59.43
7532;BME280;3807;49.030;8.714;2023-05-22T09:54:12;98983.38;;;24.54;58.53
7532;BME280;3807;49.030;8.714;2023-05-22T09:56:40;98982.50;;;24.63;58.71
7532;BME280;3807;49.030;8.714;2023-05-22T09:59:08;98982.56;;;24.54;59.10
7532;BME280;3807;49.030;8.714;2023-05-22T10:01:35;98978.72;;;24.76;58.38
7532;BME280;3807;49.030;8.714;2023-05-22T10:04:01;98980.69;;;24.82;58.18
7532;BME280;3807;49.030;8.714;2023-05-22T10:06:29;98982.44;;;24.99;58.10
7532;BME280;3807;49.030;8.714;2023-05-22T10:08:59;98984.97;;;25.09;57.23
7532;BME280;3807;49.030;8.714;2023-05-22T10:11:28;98983.94;;;25.19;56.90
7532;BME280;3807;49.030;8.714;2023-05-22T10:13:55;98975.41;;;25.35;56.79
7532;BME280;3807;49.030;8.714;2023-05-22T10:16:23;98976.72;;;25.39;56.37
7532;BME280;3807;49.030;8.714;2023-05-22T10:18:51;98981.44;;;25.36;56.79
7532;BME280;3807;49.030;8.714;2023-05-22T10:21:18;98977.25;;;25.43;56.32
7532;BME280;3807;49.030;8.714;2023-05-22T10:23:45;98984.12;;;25.52;56.59
7532;BME280;3807;49.030;8.714;2023-05-22T10:26:12;98978.34;;;25.66;56.58
7532;BME280;3807;49.030;8.714;2023-05-22T10:28:41;98974.94;;;25.74;56.52
7532;BME280;3807;49.030;8.714;2023-05-22T10:31:21;98978.13;;;25.86;56.12
7532;BME280;3807;49.030;8.714;2023-05-22T10:33:55;98971.84;;;26.05;54.10
7532;BME280;3807;49.030;8.714;2023-05-22T10:41:22;98977.13;;;26.46;53.66
7532;BME280;3807;49.030;8.714;2023-05-22T10:43:48;98969.50;;;26.60;53.42
7532;BME280;3807;49.030;8.714;2023-05-22T10:46:14;98966.38;;;26.73;52.88
7532;BME280;3807;49.030;8.714;2023-05-22T10:48:45;98956.75;;;26.82;53.68
7532;BME280;3807;49.030;8.714;2023-05-22T10:51:17;98950.03;;;27.04;52.29
7532;BME280;3807;49.030;8.714;2023-05-22T10:53:43;98952.66;;;27.20;52.90
7532;BME280;3807;49.030;8.714;2023-05-22T10:56:13;98958.03;;;27.27;51.60
7532;BME280;3807;49.030;8.714;2023-05-22T10:58:40;98960.28;;;27.30;52.80
7532;BME280;3807;49.030;8.714;2023-05-22T11:01:19;98957.50;;;27.48;51.77
7532;BME280;3807;49.030;8.714;2023-05-22T11:03:59;98941.56;;;27.66;50.89
7532;BME280;3807;49.030;8.714;2023-05-22T11:06:38;98943.38;;;27.65;51.90
7532;BME280;3807;49.030;8.714;2023-05-22T11:09:31;98943.78;;;27.85;50.56
7532;BME280;3807;49.030;8.714;2023-05-22T11:14:58;98942.69;;;28.02;49.45
7532;BME280;3807;49.030;8.714;2023-05-22T11:17:26;98942.88;;;28.24;49.69
7532;BME280;3807;49.030;8.714;2023-05-22T11:20:05;98940.91;;;28.26;49.37
7532;BME280;3807;49.030;8.714;2023-05-22T11:25:14;98944.84;;;28.53;50.06
7532;BME280;3807;49.030;8.714;2023-05-22T11:27:41;98938.91;;;28.59;49.62
7532;BME280;3807;49.030;8.714;2023-05-22T11:30:07;98932.72;;;28.75;48.71
7532;BME280;3807;49.030;8.714;2023-05-22T11:32:37;98938.50;;;28.70;49.50
7532;BME280;3807;49.030;8.714;2023-05-22T11:35:03;98930.09;;;28.90;48.91
7532;BME280;3807;49.030;8.714;2023-05-22T11:37:30;98935.59;;;29.03;48.63
7532;BME280;3807;49.030;8.714;2023-05-22T11:39:59;98925.47;;;29.30;46.33
7532;BME280;3807;49.030;8.714;2023-05-22T11:42:24;98923.56;;;29.38;47.27
7532;BME280;3807;49.030;8.714;2023-05-22T11:44:50;98916.34;;;29.40;47.37
7532;BME280;3807;49.030;8.714;2023-05-22T11:47:15;98920.56;;;29.41;46.33
7532;BME280;3807;49.030;8.714;2023-05-22T11:49:41;98922.75;;;29.67;46.88
7532;BME280;3807;49.030;8.714;2023-05-22T11:52:08;98904.72;;;29.79;47.59
7532;BME280;3807;49.030;8.714;2023-05-22T11:54:33;98911.66;;;29.87;46.37
7532;BME280;3807;49.030;8.714;2023-05-22T11:57:02;98904.59;;;30.09;46.13
7532;BME280;3807;49.030;8.714;2023-05-22T11:59:28;98899.06;;;30.19;46.54
7532;BME280;3807;49.030;8.714;2023-05-22T12:01:53;98899.12;;;30.25;46.13
7532;BME280;3807;49.030;8.714;2023-05-22T12:04:18;98897.66;;;30.37;46.07
7532;BME280;3807;49.030;8.714;2023-05-22T12:06:44;98886.75;;;30.69;44.64
7532;BME280;3807;49.030;8.714;2023-05-22T12:09:09;98899.31;;;30.73;43.47
7532;BME280;3807;49.030;8.714;2023-05-22T12:11:35;98896.44;;;30.90;44.88
7532;BME280;3807;49.030;8.714;2023-05-22T12:14:04;98896.13;;;31.06;44.46
7532;BME280;3807;49.030;8.714;2023-05-22T12:16:35;98902.44;;;31.12;44.34
7532;BME280;3807;49.030;8.714;2023-05-22T12:19:08;98900.41;;;31.14;44.59
7532;BME280;3807;49.030;8.714;2023-05-22T12:21:34;98893.78;;;31.18;44.04
7532;BME280;3807;49.030;8.714;2023-05-22T12:24:05;98892.91;;;31.45;43.72
7532;BME280;3807;49.030;8.714;2023-05-22T12:26:33;98898.06;;;31.73;42.51
7532;BME280;3807;49.030;8.714;2023-05-22T12:28:59;98909.03;;;31.77;43.56
7532;BME280;3807;49.030;8.714;2023-05-22T12:31:25;98908.50;;;31.95;42.40
7532;BME280;3807;49.030;8.714;2023-05-22T12:33:54;98899.16;;;31.92;42.53
7532;BME280;3807;49.030;8.714;2023-05-22T12:36:20;98899.97;;;31.93;43.27
7532;BME280;3807;49.030;8.714;2023-05-22T12:38:45;98898.34;;;31.92;43.21
7532;BME280;3807;49.030;8.714;2023-05-22T12:41:10;98893.84;;;31.86;43.23
7532;BME280;3807;49.030;8.714;2023-05-22T12:43:36;98890.44;;;31.92;43.31
7532;BME280;3807;49.030;8.714;2023-05-22T12:46:01;98893.31;;;32.10;42.99
7532;BME280;3807;49.030;8.714;2023-05-22T12:48:27;98883.97;;;31.94;40.61
7532;BME280;3807;49.030;8.714;2023-05-22T12:50:52;98901.44;;;32.22;42.96
7532;BME280;3807;49.030;8.714;2023-05-22T12:53:18;98897.19;;;32.34;43.25
7532;BME280;3807;49.030;8.714;2023-05-22T12:55:43;98890.34;;;32.46;42.36
7532;BME280;3807;49.030;8.714;2023-05-22T12:58:09;98898.19;;;32.33;42.98
7532;BME280;3807;49.030;8.714;2023-05-22T13:00:34;98892.12;;;32.59;40.97
7532;BME280;3807;49.030;8.714;2023-05-22T13:03:00;98887.47;;;32.61;42.01
7532;BME280;3807;49.030;8.714;2023-05-22T13:05:26;98880.59;;;32.60;41.69
7532;BME280;3807;49.030;8.714;2023-05-22T13:07:51;98873.87;;;32.71;40.89
7532;BME280;3807;49.030;8.714;2023-05-22T13:10:17;98872.06;;;32.58;41.22
7532;BME280;3807;49.030;8.714;2023-05-22T13:12:43;98871.22;;;32.78;41.18
7532;BME280;3807;49.030;8.714;2023-05-22T13:15:11;98874.66;;;32.85;39.28
7532;BME280;3807;49.030;8.714;2023-05-22T13:17:38;98873.03;;;32.97;41.05
7532;BME280;3807;49.030;8.714;2023-05-22T13:20:04;98861.53;;;32.58;40.90
7532;BME280;3807;49.030;8.714;2023-05-22T13:22:30;98869.00;;;32.68;40.86
7532;BME280;3807;49.030;8.714;2023-05-22T13:24:55;98865.56;;;32.41;38.93
7532;BME280;3807;49.030;8.714;2023-05-22T13:27:21;98872.22;;;32.83;39.43
7532;BME280;3807;49.030;8.714;2023-05-22T13:29:47;98871.00;;;32.86;38.87
7532;BME280;3807;49.030;8.714;2023-05-22T13:32:12;98862.25;;;32.99;37.70
7532;BME280;3807;49.030;8.714;2023-05-22T13:34:42;98861.66;;;33.03;39.38